sensor_id;sensor_type;location;lat;lon;timestamp;temperature;humidity
31765;DHT22;18338;53.240;8.798;2023-04-10T00:01:06;3.90;99.90
31765;DHT22;18338;53.240;8.798;2023-04-10T00:03:33;3.90;99.90
31765;DHT22;18338;53.240;8.798;2023-04-10T00:06:00;3.90;99.90
31765;DHT22;18338;53.240;8.798;2023-04-10T00:08:26;3.90;99.90
31765;DHT22;18338;53.240;8.798;2023-04-10T00:10:53;3.90;99.90
31765;DHT22;18338;53.240;8.798;2023-04-10T00:13:20;3.80;99.90
31765;DHT22;18338;53.240;8.798;2023-04-10T00:15:47;3.80;99.90
31765;DHT22;18338;53.240;8.798;2023-04-10T00:18:13;3.80;99.90
31765;DHT22;18338;53.240;8.798;2023-04-10T00:20:40;3.80;99.90
31765;DHT22;18338;53.240;8.798;2023-04-10T00:23:07;3.70;99.90
31765;DHT22;18338;53.240;8.798;2023-04-10T00:25:34;3.70;99.90
31765;DHT22;18338;53.240;8.798;2023-04-10T00:28:00;3.70;99.90
31765;DHT22;18338;53.240;8.798;2023-04-10T00:30:27;3.70;99.90
31765;DHT22;18338;53.240;8.798;2023-04-10T00:32:53;3.70;99.90
31765;DHT22;18338;53.240;8.798;2023-04-10T00:35:20;3.70;99.90
31765;DHT22;18338;53.240;8.798;2023-04-10T00:37:47;3.70;99.90
31765;DHT22;18338;53.240;8.798;2023-04-10T00:40:15;3.70;99.90
31765;DHT22;18338;53.240;8.798;2023-04-10T00:42:42;3.70;99.90
31765;DHT22;18338;53.240;8.798;2023-04-10T00:45:09;3.70;99.90
31765;DHT22;18338;53.240;8.798;2023-04-10T00:47:37;3.70;99.90
31765;DHT22;18338;53.240;8.798;2023-04-10T00:50:04;3.70;99.90
31765;DHT22;18338;53.240;8.798;2023-04-10T00:52:32;3.70;99.90
31765;DHT22;18338;53.240;8.798;2023-04-10T00:54:58;3.70;99.90
31765;DHT22;18338;53.240;8.798;2023-04-10T00:57:25;3.70;99.90
31765;DHT22;18338;53.240;8.798;2023-04-10T00:59:52;3.70;99.90
31765;DHT22;18338;53.240;8.798;2023-04-10T01:02:19;3.70;99.90
31765;DHT22;18338;53.240;8.798;2023-04-10T01:04:46;3.70;99.90
31765;DHT22;18338;53.240;8.798;2023-04-10T01:07:37;3.70;99.90
31765;DHT22;18338;53.240;8.798;2023-04-10T01:10:44;3.80;99.90
31765;DHT22;18338;53.240;8.798;2023-04-10T01:16:12;3.90;99.90
31765;DHT22;18338;53.240;8.798;2023-04-10T01:21:22;4.10;99.90
31765;DHT22;18338;53.240;8.798;2023-04-10T01:23:53;4.10;99.90
31765;DHT22;18338;53.240;8.798;2023-04-10T01:26:41;4.20;99.90
31765;DHT22;18338;53.240;8.798;2023-04-10T01:29:13;4.30;99.90
31765;DHT22;18338;53.240;8.798;2023-04-10T01:31:53;4.40;99.90
31765;DHT22;18338;53.240;8.798;2023-04-10T01:34:25;4.50;99.90
31765;DHT22;18338;53.240;8.798;2023-04-10T01:37:03;4.50;99.90
31765;DHT22;18338;53.240;8.798;2023-04-10T01:39:30;4.60;99.90
31765;DHT22;18338;53.240;8.798;2023-04-10T01:42:02;4.60;99.90
31765;DHT22;18338;53.240;8.798;2023-04-10T01:44:31;4.70;99.90
31765;DHT22;18338;53.240;8.798;2023-04-10T01:47:00;4.70;99.90
31765;DHT22;18338;53.240;8.798;2023-04-10T01:49:29;4.70;99.90
31765;DHT22;18338;53.240;8.798;2023-04-10T01:51:59;4.70;99.90
31765;DHT22;18338;53.240;8.798;2023-04-10T01:54:32;4.70;99.90
31765;DHT22;18338;53.240;8.798;2023-04-10T01:57:00;4.60;99.90
31765;DHT22;18338;53.240;8.798;2023-04-10T01:59:27;4.60;99.90
31765;DHT22;18338;53.240;8.798;2023-04-10T02:01:56;4.50;99.90
31765;DHT22;18338;53.240;8.798;2023-04-10T02:04:23;4.50;99.90
31765;DHT22;18338;53.240;8.798;2023-04-10T02:07:15;4.40;99.90
31765;DHT22;18338;53.240;8.798;2023-04-10T02:12:40;4.30;99.90
31765;DHT22;18338;53.240;8.798;2023-04-10T02:15:09;4.20;99.90
31765;DHT22;18338;53.240;8.798;2023-04-10T02:17:37;4.20;99.90
31765;DHT22;18338;53.240;8.798;2023-04-10T02:20:05;4.10;99.90
31765;DHT22;18338;53.240;8.798;2023-04-10T02:22:33;4.10;99.90
31765;DHT22;18338;53.240;8.798;2023-04-10T02:25:03;4.00;99.90
31765;DHT22;18338;53.240;8.798;2023-04-10T02:27:32;3.90;99.90
31765;DHT22;18338;53.240;8.798;2023-04-10T02:30:00;3.90;99.90
31765;DHT22;18338;53.240;8.798;2023-04-10T02:32:29;3.90;99.90
31765;DHT22;18338;53.240;8.798;2023-04-10T02:34:56;3.80;99.90
31765;DHT22;18338;53.240;8.798;2023-04-10T02:37:23;3.70;99.90
31765;DHT22;18338;53.240;8.798;2023-04-10T02:39:50;3.70;99.90
31765;DHT22;18338;53.240;8.798;2023-04-10T02:42:17;3.60;99.90
31765;DHT22;18338;53.240;8.798;2023-04-10T02:44:43;3.50;99.90
31765;DHT22;18338;53.240;8.798;2023-04-10T02:47:10;3.40;99.90
31765;DHT22;18338;53.240;8.798;2023-04-10T02:49:36;3.40;99.90
31765;DHT22;18338;53.240;8.798;2023-04-10T02:52:03;3.30;99.90
31765;DHT22;18338;53.240;8.798;2023-04-10T02:54:30;3.30;99.90
31765;DHT22;18338;53.240;8.798;2023-04-10T02:56:57;3.30;99.90
31765;DHT22;18338;53.240;8.798;2023-04-10T02:59:24;3.30;99.90
31765;DHT22;18338;53.240;8.798;2023-04-10T03:01:51;3.20;99.90
31765;DHT22;18338;53.240;8.798;2023-04-10T03:04:17;3.10;99.90
31765;DHT22;18338;53.240;8.798;2023-04-10T03:06:45;3.10;99.90
31765;DHT22;18338;53.240;8.798;2023-04-10T03:09:11;3.10;99.90
31765;DHT22;18338;53.240;8.798;2023-04-10T03:11:38;3.10;99.90
31765;DHT22;18338;53.240;8.798;2023-04-10T03:14:05;3.10;99.90
31765;DHT22;18338;53.240;8.798;2023-04-10T03:16:31;3.10;99.90
31765;DHT22;18338;53.240;8.798;2023-04-10T03:18:58;3.10;99.90
31765;DHT22;18338;53.240;8.798;2023-04-10T03:21:25;3.10;99.90
31765;DHT22;18338;53.240;8.798;2023-04-10T03:23:52;3.00;99.90
31765;DHT22;18338;53.240;8.798;2023-04-10T03:26:19;3.00;99.90
31765;DHT22;18338;53.240;8.798;2023-04-10T03:28:46;3.00;99.90
31765;DHT22;18338;53.240;8.798;2023-04-10T03:31:15;3.00;99.90
31765;DHT22;18338;53.240;8.798;2023-04-10T03:33:43;3.00;99.90
31765;DHT22;18338;53.240;8.798;2023-04-10T03:36:10;3.00;99.90
31765;DHT22;18338;53.240;8.798;2023-04-10T03:38:37;3.00;99.90
31765;DHT22;18338;53.240;8.798;2023-04-10T03:41:03;3.00;99.90
31765;DHT22;18338;53.240;8.798;2023-04-10T03:43:30;3.00;99.90
31765;DHT22;18338;53.240;8.798;2023-04-10T03:45:57;3.00;99.90
31765;DHT22;18338;53.240;8.798;2023-04-10T03:48:24;3.10;99.90
31765;DHT22;18338;53.240;8.798;2023-04-10T03:50:54;3.20;99.90
31765;DHT22;18338;53.240;8.798;2023-04-10T03:53:21;3.20;99.90
31765;DHT22;18338;53.240;8.798;2023-04-10T03:55:48;3.30;99.90
31765;DHT22;18338;53.240;8.798;2023-04-10T03:58:14;3.30;99.90
31765;DHT22;18338;53.240;8.798;2023-04-10T04:00:41;3.50;99.90
31765;DHT22;18338;53.240;8.798;2023-04-10T04:03:08;3.60;99.90
31765;DHT22;18338;53.240;8.798;2023-04-10T04:05:35;3.60;99.90
31765;DHT22;18338;53.240;8.798;2023-04-10T04:08:01;3.80;99.90
31765;DHT22;18338;53.240;8.798;2023-04-10T04:10:32;3.80;99.90
31765;DHT22;18338;53.240;8.798;2023-04-10T04:12:58;3.90;99.90
31765;DHT22;18338;53.240;8.798;2023-04-10T04:15:25;4.00;99.90
31765;DHT22;18338;53.240;8.798;2023-04-10T04:17:52;4.10;99.90
31765;DHT22;18338;53.240;8.798;2023-04-10T04:20:18;4.20;99.90
31765;DHT22;18338;53.240;8.798;2023-04-10T04:22:45;4.30;99.90
31765;DHT22;18338;53.240;8.798;2023-04-10T04:25:12;4.30;99.90
31765;DHT22;18338;53.240;8.798;2023-04-10T04:27:39;4.40;99.90
31765;DHT22;18338;53.240;8.798;2023-04-10T04:30:06;4.40;99.90
31765;DHT22;18338;53.240;8.798;2023-04-10T04:32:33;4.30;99.90
31765;DHT22;18338;53.240;8.798;2023-04-10T04:35:00;4.40;99.90
31765;DHT22;18338;53.240;8.798;2023-04-10T04:37:26;4.50;99.90
31765;DHT22;18338;53.240;8.798;2023-04-10T04:39:53;4.40;99.90
31765;DHT22;18338;53.240;8.798;2023-04-10T04:42:20;4.50;99.90
31765;DHT22;18338;53.240;8.798;2023-04-10T04:44:48;4.40;99.90
31765;DHT22;18338;53.240;8.798;2023-04-10T04:47:14;4.40;99.90
31765;DHT22;18338;53.240;8.798;2023-04-10T04:49:42;4.40;99.90
31765;DHT22;18338;53.240;8.798;2023-04-10T04:52:09;4.50;99.90
31765;DHT22;18338;53.240;8.798;2023-04-10T04:54:36;4.60;99.90
31765;DHT22;18338;53.240;8.798;2023-04-10T04:57:03;4.70;99.90
31765;DHT22;18338;53.240;8.798;2023-04-10T04:59:29;4.80;99.90
31765;DHT22;18338;53.240;8.798;2023-04-10T05:01:56;4.90;99.90
31765;DHT22;18338;53.240;8.798;2023-04-10T05:04:23;5.00;99.90
31765;DHT22;18338;53.240;8.798;2023-04-10T05:06:50;5.10;99.90
31765;DHT22;18338;53.240;8.798;2023-04-10T05:09:17;5.20;99.90
31765;DHT22;18338;53.240;8.798;2023-04-10T05:11:43;5.30;99.90
31765;DHT22;18338;53.240;8.798;2023-04-10T05:14:10;5.40;99.90
31765;DHT22;18338;53.240;8.798;2023-04-10T05:16:37;5.50;99.90
31765;DHT22;18338;53.240;8.798;2023-04-10T05:19:03;5.50;99.90
31765;DHT22;18338;53.240;8.798;2023-04-10T05:21:30;5.50;99.90
31765;DHT22;18338;53.240;8.798;2023-04-10T05:23:57;5.60;99.90
31765;DHT22;18338;53.240;8.798;2023-04-10T05:26:23;5.70;99.90
31765;DHT22;18338;53.240;8.798;2023-04-10T05:28:50;5.70;99.90
31765;DHT22;18338;53.240;8.798;2023-04-10T05:31:17;5.70;99.90
31765;DHT22;18338;53.240;8.798;2023-04-10T05:33:44;5.70;99.90
31765;DHT22;18338;53.240;8.798;2023-04-10T05:36:11;5.60;99.90
31765;DHT22;18338;53.240;8.798;2023-04-10T05:38:38;5.70;99.90
31765;DHT22;18338;53.240;8.798;2023-04-10T05:41:05;5.60;99.90
31765;DHT22;18338;53.240;8.798;2023-04-10T05:43:31;5.60;99.90
31765;DHT22;18338;53.240;8.798;2023-04-10T05:45:58;5.70;99.90
31765;DHT22;18338;53.240;8.798;2023-04-10T05:48:24;5.80;99.90
31765;DHT22;18338;53.240;8.798;2023-04-10T05:50:51;5.80;99.90
31765;DHT22;18338;53.240;8.798;2023-04-10T05:53:19;5.80;99.90
31765;DHT22;18338;53.240;8.798;2023-04-10T05:55:49;5.80;99.90
31765;DHT22;18338;53.240;8.798;2023-04-10T05:58:22;5.90;99.90
31765;DHT22;18338;53.240;8.798;2023-04-10T06:00:48;5.90;99.90
31765;DHT22;18338;53.240;8.798;2023-04-10T06:03:15;6.00;99.90
31765;DHT22;18338;53.240;8.798;2023-04-10T06:05:41;6.10;99.90
31765;DHT22;18338;53.240;8.798;2023-04-10T06:08:08;6.20;99.90
31765;DHT22;18338;53.240;8.798;2023-04-10T06:10:35;6.40;99.90
31765;DHT22;18338;53.240;8.798;2023-04-10T06:13:02;6.50;99.90
31765;DHT22;18338;53.240;8.798;2023-04-10T06:15:29;6.60;99.90
31765;DHT22;18338;53.240;8.798;2023-04-10T06:17:56;6.70;99.90
31765;DHT22;18338;53.240;8.798;2023-04-10T06:20:23;6.90;99.90
31765;DHT22;18338;53.240;8.798;2023-04-10T06:22:52;7.00;99.90
31765;DHT22;18338;53.240;8.798;2023-04-10T06:25:19;7.10;99.90
31765;DHT22;18338;53.240;8.798;2023-04-10T06:27:46;7.30;99.90
31765;DHT22;18338;53.240;8.798;2023-04-10T06:30:12;7.40;99.90
31765;DHT22;18338;53.240;8.798;2023-04-10T06:32:39;7.60;99.90
31765;DHT22;18338;53.240;8.798;2023-04-10T06:35:08;7.70;99.90
31765;DHT22;18338;53.240;8.798;2023-04-10T06:37:35;7.70;99.90
31765;DHT22;18338;53.240;8.798;2023-04-10T06:40:08;7.90;99.90
31765;DHT22;18338;53.240;8.798;2023-04-10T06:42:35;8.10;99.90
31765;DHT22;18338;53.240;8.798;2023-04-10T06:45:03;8.20;99.90
31765;DHT22;18338;53.240;8.798;2023-04-10T06:47:29;8.20;99.90
31765;DHT22;18338;53.240;8.798;2023-04-10T06:49:57;8.30;99.90
31765;DHT22;18338;53.240;8.798;2023-04-10T06:52:24;8.40;99.90
31765;DHT22;18338;53.240;8.798;2023-04-10T06:54:51;8.50;99.90
31765;DHT22;18338;53.240;8.798;2023-04-10T06:57:17;8.70;99.90
31765;DHT22;18338;53.240;8.798;2023-04-10T06:59:44;8.80;99.90
31765;DHT22;18338;53.240;8.798;2023-04-10T07:02:11;8.90;99.90
31765;DHT22;18338;53.240;8.798;2023-04-10T07:04:38;9.00;99.90
31765;DHT22;18338;53.240;8.798;2023-04-10T07:07:04;9.20;99.90
31765;DHT22;18338;53.240;8.798;2023-04-10T07:09:35;9.40;99.90
31765;DHT22;18338;53.240;8.798;2023-04-10T07:12:02;9.60;99.90
31765;DHT22;18338;53.240;8.798;2023-04-10T07:14:28;9.70;99.90
31765;DHT22;18338;53.240;8.798;2023-04-10T07:16:55;9.80;99.90
31765;DHT22;18338;53.240;8.798;2023-04-10T07:19:21;9.80;99.90
31765;DHT22;18338;53.240;8.798;2023-04-10T07:21:48;9.90;99.90
31765;DHT22;18338;53.240;8.798;2023-04-10T07:24:16;9.90;99.90
31765;DHT22;18338;53.240;8.798;2023-04-10T07:26:43;10.10;99.90
31765;DHT22;18338;53.240;8.798;2023-04-10T07:29:11;10.20;99.90
31765;DHT22;18338;53.240;8.798;2023-04-10T07:31:38;10.40;99.90
31765;DHT22;18338;53.240;8.798;2023-04-10T07:34:06;10.80;99.90
31765;DHT22;18338;53.240;8.798;2023-04-10T07:36:36;10.90;99.90
31765;DHT22;18338;53.240;8.798;2023-04-10T07:39:05;11.00;99.90
31765;DHT22;18338;53.240;8.798;2023-04-10T07:41:40;11.10;99.90
31765;DHT22;18338;53.240;8.798;2023-04-10T07:44:07;11.20;99.90
31765;DHT22;18338;53.240;8.798;2023-04-10T07:46:33;11.40;99.90
31765;DHT22;18338;53.240;8.798;2023-04-10T07:49:00;11.40;99.90
31765;DHT22;18338;53.240;8.798;2023-04-10T07:51:27;11.60;99.90
31765;DHT22;18338;53.240;8.798;2023-04-10T07:53:54;11.80;99.90
31765;DHT22;18338;53.240;8.798;2023-04-10T07:56:21;11.90;99.90
31765;DHT22;18338;53.240;8.798;2023-04-10T07:58:50;11.90;99.90
31765;DHT22;18338;53.240;8.798;2023-04-10T08:01:17;12.00;99.90
31765;DHT22;18338;53.240;8.798;2023-04-10T08:03:44;12.00;99.90
31765;DHT22;18338;53.240;8.798;2023-04-10T08:06:13;12.20;99.90
31765;DHT22;18338;53.240;8.798;2023-04-10T08:08:41;12.20;99.90
31765;DHT22;18338;53.240;8.798;2023-04-10T08:13:52;12.40;99.90
31765;DHT22;18338;53.240;8.798;2023-04-10T08:16:29;12.40;99.90
31765;DHT22;18338;53.240;8.798;2023-04-10T08:18:57;12.50;99.90
31765;DHT22;18338;53.240;8.798;2023-04-10T08:21:26;12.70;99.90
31765;DHT22;18338;53.240;8.798;2023-04-10T08:23:58;13.00;99.90
31765;DHT22;18338;53.240;8.798;2023-04-10T08:26:26;13.20;99.90
31765;DHT22;18338;53.240;8.798;2023-04-10T08:28:55;13.40;99.90
31765;DHT22;18338;53.240;8.798;2023-04-10T08:31:23;13.60;99.90
31765;DHT22;18338;53.240;8.798;2023-04-10T08:33:50;13.80;99.90
31765;DHT22;18338;53.240;8.798;2023-04-10T08:36:17;14.30;99.90
31765;DHT22;18338;53.240;8.798;2023-04-10T08:38:46;15.80;99.90
31765;DHT22;18338;53.240;8.798;2023-04-10T08:41:14;17.10;99.90
31765;DHT22;18338;53.240;8.798;2023-04-10T08:43:42;18.10;99.90
31765;DHT22;18338;53.240;8.798;2023-04-10T08:46:12;17.80;98.20
31765;DHT22;18338;53.240;8.798;2023-04-10T08:49:07;17.40;99.40
31765;DHT22;18338;53.240;8.798;2023-04-10T08:51:42;18.90;96.10
31765;DHT22;18338;53.240;8.798;2023-04-10T08:54:23;20.70;93.50
31765;DHT22;18338;53.240;8.798;2023-04-10T08:57:26;20.30;90.50
31765;DHT22;18338;53.240;8.798;2023-04-10T08:59:53;20.30;91.70
31765;DHT22;18338;53.240;8.798;2023-04-10T09:02:37;20.90;87.20
31765;DHT22;18338;53.240;8.798;2023-04-10T09:05:10;20.60;89.40
31765;DHT22;18338;53.240;8.798;2023-04-10T09:07:38;20.40;88.70
31765;DHT22;18338;53.240;8.798;2023-04-10T09:10:06;19.70;90.10
31765;DHT22;18338;53.240;8.798;2023-04-10T09:12:44;20.40;88.20
31765;DHT22;18338;53.240;8.798;2023-04-10T09:15:12;20.70;86.90
31765;DHT22;18338;53.240;8.798;2023-04-10T09:17:59;21.00;85.40
31765;DHT22;18338;53.240;8.798;2023-04-10T09:20:31;20.30;87.40
31765;DHT22;18338;53.240;8.798;2023-04-10T09:22:57;21.90;83.30
31765;DHT22;18338;53.240;8.798;2023-04-10T09:25:35;23.40;81.00
31765;DHT22;18338;53.240;8.798;2023-04-10T09:28:08;23.40;76.70
31765;DHT22;18338;53.240;8.798;2023-04-10T09:30:41;22.60;79.60
31765;DHT22;18338;53.240;8.798;2023-04-10T09:33:22;23.00;77.60
31765;DHT22;18338;53.240;8.798;2023-04-10T09:35:57;23.80;77.90
31765;DHT22;18338;53.240;8.798;2023-04-10T09:38:29;22.80;76.80
31765;DHT22;18338;53.240;8.798;2023-04-10T09:41:06;21.40;78.40
31765;DHT22;18338;53.240;8.798;2023-04-10T09:43:33;20.20;82.30
31765;DHT22;18338;53.240;8.798;2023-04-10T09:46:00;19.40;85.20
31765;DHT22;18338;53.240;8.798;2023-04-10T09:48:27;19.00;87.60
31765;DHT22;18338;53.240;8.798;2023-04-10T09:50:54;20.50;87.40
31765;DHT22;18338;53.240;8.798;2023-04-10T09:53:22;21.80;82.40
31765;DHT22;18338;53.240;8.798;2023-04-10T09:55:49;22.50;77.90
31765;DHT22;18338;53.240;8.798;2023-04-10T09:58:16;22.30;80.70
31765;DHT22;18338;53.240;8.798;2023-04-10T10:00:48;22.90;79.40
31765;DHT22;18338;53.240;8.798;2023-04-10T10:03:17;22.80;77.40
31765;DHT22;18338;53.240;8.798;2023-04-10T10:05:47;22.00;79.00
31765;DHT22;18338;53.240;8.798;2023-04-10T10:08:15;22.60;75.20
31765;DHT22;18338;53.240;8.798;2023-04-10T10:10:47;22.10;76.30
31765;DHT22;18338;53.240;8.798;2023-04-10T10:13:36;23.20;78.00
31765;DHT22;18338;53.240;8.798;2023-04-10T10:16:20;23.80;73.30
31765;DHT22;18338;53.240;8.798;2023-04-10T10:19:07;23.90;76.70
31765;DHT22;18338;53.240;8.798;2023-04-10T10:21:35;24.10;73.10
31765;DHT22;18338;53.240;8.798;2023-04-10T10:24:07;24.00;69.70
31765;DHT22;18338;53.240;8.798;2023-04-10T10:26:40;23.40;69.90
31765;DHT22;18338;53.240;8.798;2023-04-10T10:29:09;22.90;69.00
31765;DHT22;18338;53.240;8.798;2023-04-10T10:31:40;22.80;70.60
31765;DHT22;18338;53.240;8.798;2023-04-10T10:34:08;22.80;70.50
31765;DHT22;18338;53.240;8.798;2023-04-10T10:36:35;21.70;70.80
31765;DHT22;18338;53.240;8.798;2023-04-10T10:39:07;23.00;68.60
31765;DHT22;18338;53.240;8.798;2023-04-10T10:41:43;22.70;68.00
31765;DHT22;18338;53.240;8.798;2023-04-10T10:44:25;22.90;67.70
31765;DHT22;18338;53.240;8.798;2023-04-10T10:47:01;22.80;69.10
31765;DHT22;18338;53.240;8.798;2023-04-10T10:49:58;22.70;68.10
31765;DHT22;18338;53.240;8.798;2023-04-10T10:52:56;22.60;69.30
31765;DHT22;18338;53.240;8.798;2023-04-10T10:57:51;22.30;68.60
31765;DHT22;18338;53.240;8.798;2023-04-10T11:00:24;22.50;68.00
31765;DHT22;18338;53.240;8.798;2023-04-10T11:05:50;22.60;65.50
31765;DHT22;18338;53.240;8.798;2023-04-10T11:08:46;21.50;69.10
31765;DHT22;18338;53.240;8.798;2023-04-10T11:11:23;20.10;70.50
31765;DHT22;18338;53.240;8.798;2023-04-10T11:19:01;19.00;75.20
31765;DHT22;18338;53.240;8.798;2023-04-10T11:22:04;18.80;74.80
31765;DHT22;18338;53.240;8.798;2023-04-10T11:24:51;18.60;75.90
31765;DHT22;18338;53.240;8.798;2023-04-10T11:27:42;18.90;76.10
31765;DHT22;18338;53.240;8.798;2023-04-10T11:30:28;18.60;76.70
31765;DHT22;18338;53.240;8.798;2023-04-10T11:32:56;18.70;76.20
31765;DHT22;18338;53.240;8.798;2023-04-10T11:35:24;19.20;77.10
31765;DHT22;18338;53.240;8.798;2023-04-10T11:37:51;19.10;76.50
31765;DHT22;18338;53.240;8.798;2023-04-10T11:40:21;19.40;76.20
31765;DHT22;18338;53.240;8.798;2023-04-10T11:42:48;19.40;74.30
31765;DHT22;18338;53.240;8.798;2023-04-10T11:47:51;19.40;75.30
31765;DHT22;18338;53.240;8.798;2023-04-10T11:50:18;19.40;75.70
31765;DHT22;18338;53.240;8.798;2023-04-10T11:52:51;19.30;75.20
31765;DHT22;18338;53.240;8.798;2023-04-10T11:55:20;19.30;75.10
31765;DHT22;18338;53.240;8.798;2023-04-10T11:58:00;19.30;76.20
31765;DHT22;18338;53.240;8.798;2023-04-10T12:00:27;18.70;77.00
31765;DHT22;18338;53.240;8.798;2023-04-10T12:02:54;18.50;77.50
31765;DHT22;18338;53.240;8.798;2023-04-10T12:05:21;18.40;77.00
31765;DHT22;18338;53.240;8.798;2023-04-10T12:07:48;18.70;77.20
31765;DHT22;18338;53.240;8.798;2023-04-10T12:10:15;18.40;77.00
31765;DHT22;18338;53.240;8.798;2023-04-10T12:12:42;18.20;78.40
31765;DHT22;18338;53.240;8.798;2023-04-10T12:15:26;18.50;77.70
31765;DHT22;18338;53.240;8.798;2023-04-10T12:17:53;18.70;77.10
31765;DHT22;18338;53.240;8.798;2023-04-10T12:20:20;18.90;76.70
31765;DHT22;18338;53.240;8.798;2023-04-10T12:22:53;19.10;76.20
31765;DHT22;18338;53.240;8.798;2023-04-10T12:25:21;19.40;74.80
31765;DHT22;18338;53.240;8.798;2023-04-10T12:27:48;19.70;73.60
31765;DHT22;18338;53.240;8.798;2023-04-10T12:30:18;20.10;73.50
31765;DHT22;18338;53.240;8.798;2023-04-10T12:32:50;20.90;72.50
31765;DHT22;18338;53.240;8.798;2023-04-10T12:35:20;21.30;72.50
31765;DHT22;18338;53.240;8.798;2023-04-10T12:38:02;22.00;70.80
31765;DHT22;18338;53.240;8.798;2023-04-10T12:40:29;22.40;68.40
31765;DHT22;18338;53.240;8.798;2023-04-10T12:42:56;22.10;68.70
31765;DHT22;18338;53.240;8.798;2023-04-10T12:45:42;22.10;69.30
31765;DHT22;18338;53.240;8.798;2023-04-10T12:48:09;22.30;68.30
31765;DHT22;18338;53.240;8.798;2023-04-10T12:50:46;21.90;66.80
31765;DHT22;18338;53.240;8.798;2023-04-10T12:53:13;22.00;68.10
31765;DHT22;18338;53.240;8.798;2023-04-10T12:55:40;21.10;66.60
31765;DHT22;18338;53.240;8.798;2023-04-10T12:58:15;21.00;68.90
31765;DHT22;18338;53.240;8.798;2023-04-10T13:00:47;21.60;68.10
31765;DHT22;18338;53.240;8.798;2023-04-10T13:03:14;21.80;66.70
31765;DHT22;18338;53.240;8.798;2023-04-10T13:05:42;21.00;67.70
31765;DHT22;18338;53.240;8.798;2023-04-10T13:08:08;20.90;68.40
31765;DHT22;18338;53.240;8.798;2023-04-10T13:10:35;20.80;69.70
31765;DHT22;18338;53.240;8.798;2023-04-10T13:13:03;20.60;70.60
31765;DHT22;18338;53.240;8.798;2023-04-10T13:15:32;19.90;70.40
31765;DHT22;18338;53.240;8.798;2023-04-10T13:18:02;19.50;73.20
31765;DHT22;18338;53.240;8.798;2023-04-10T13:20:35;19.70;73.40
31765;DHT22;18338;53.240;8.798;2023-04-10T13:23:02;19.30;71.80
31765;DHT22;18338;53.240;8.798;2023-04-10T13:25:31;19.10;72.70
31765;DHT22;18338;53.240;8.798;2023-04-10T13:28:01;19.60;73.30
31765;DHT22;18338;53.240;8.798;2023-04-10T13:30:28;19.60;70.60
31765;DHT22;18338;53.240;8.798;2023-04-10T13:32:55;19.50;69.00
31765;DHT22;18338;53.240;8.798;2023-04-10T13:35:22;19.50;70.30
31765;DHT22;18338;53.240;8.798;2023-04-10T13:37:48;19.60;70.00
31765;DHT22;18338;53.240;8.798;2023-04-10T13:40:19;19.70;70.00
31765;DHT22;18338;53.240;8.798;2023-04-10T13:42:47;20.00;70.00
31765;DHT22;18338;53.240;8.798;2023-04-10T13:45:14;20.00;70.90
31765;DHT22;18338;53.240;8.798;2023-04-10T13:47:42;20.10;69.30
31765;DHT22;18338;53.240;8.798;2023-04-10T13:50:09;19.90;68.70
31765;DHT22;18338;53.240;8.798;2023-04-10T13:52:36;20.70;69.30
31765;DHT22;18338;53.240;8.798;2023-04-10T13:55:02;21.30;68.10
31765;DHT22;18338;53.240;8.798;2023-04-10T13:57:29;21.70;67.20
31765;DHT22;18338;53.240;8.798;2023-04-10T13:59:56;21.80;64.50
31765;DHT22;18338;53.240;8.798;2023-04-10T14:02:23;21.50;64.90
31765;DHT22;18338;53.240;8.798;2023-04-10T14:04:50;20.20;65.80
31765;DHT22;18338;53.240;8.798;2023-04-10T14:07:18;19.60;67.10
31765;DHT22;18338;53.240;8.798;2023-04-10T14:09:45;19.30;67.90
31765;DHT22;18338;53.240;8.798;2023-04-10T14:12:12;19.30;68.40
31765;DHT22;18338;53.240;8.798;2023-04-10T14:14:43;19.30;69.60
31765;DHT22;18338;53.240;8.798;2023-04-10T14:17:10;19.20;69.00
31765;DHT22;18338;53.240;8.798;2023-04-10T14:19:37;19.30;69.40
31765;DHT22;18338;53.240;8.798;2023-04-10T14:22:07;19.60;68.60
31765;DHT22;18338;53.240;8.798;2023-04-10T14:24:34;19.80;68.80
31765;DHT22;18338;53.240;8.798;2023-04-10T14:27:01;19.80;68.10
31765;DHT22;18338;53.240;8.798;2023-04-10T14:29:28;20.10;68.30
31765;DHT22;18338;53.240;8.798;2023-04-10T14:31:58;20.30;69.60
31765;DHT22;18338;53.240;8.798;2023-04-10T14:34:24;20.60;69.60
31765;DHT22;18338;53.240;8.798;2023-04-10T14:36:51;20.60;67.80
31765;DHT22;18338;53.240;8.798;2023-04-10T14:39:22;20.70;67.10
31765;DHT22;18338;53.240;8.798;2023-04-10T14:41:50;20.30;66.70
31765;DHT22;18338;53.240;8.798;2023-04-10T14:44:17;20.40;67.20
31765;DHT22;18338;53.240;8.798;2023-04-10T14:46:44;21.00;66.40
31765;DHT22;18338;53.240;8.798;2023-04-10T14:49:12;20.70;65.80
31765;DHT22;18338;53.240;8.798;2023-04-10T14:51:42;20.70;66.50
31765;DHT22;18338;53.240;8.798;2023-04-10T14:54:09;20.40;66.20
31765;DHT22;18338;53.240;8.798;2023-04-10T14:56:36;19.60;67.50
31765;DHT22;18338;53.240;8.798;2023-04-10T14:59:03;19.30;68.90
31765;DHT22;18338;53.240;8.798;2023-04-10T15:01:30;19.00;70.50
31765;DHT22;18338;53.240;8.798;2023-04-10T15:03:56;18.90;70.50
31765;DHT22;18338;53.240;8.798;2023-04-10T15:06:24;19.00;70.50
31765;DHT22;18338;53.240;8.798;2023-04-10T15:08:54;19.20;71.00
31765;DHT22;18338;53.240;8.798;2023-04-10T15:11:22;19.10;71.00
31765;DHT22;18338;53.240;8.798;2023-04-10T15:13:49;18.90;71.30
31765;DHT22;18338;53.240;8.798;2023-04-10T15:16:16;18.70;72.20
31765;DHT22;18338;53.240;8.798;2023-04-10T15:18:46;18.60;72.50
31765;DHT22;18338;53.240;8.798;2023-04-10T15:21:13;18.40;72.70
31765;DHT22;18338;53.240;8.798;2023-04-10T15:23:40;18.10;73.80
31765;DHT22;18338;53.240;8.798;2023-04-10T15:26:11;18.10;75.90
31765;DHT22;18338;53.240;8.798;2023-04-10T15:28:39;18.00;75.20
31765;DHT22;18338;53.240;8.798;2023-04-10T15:31:06;17.90;75.90
31765;DHT22;18338;53.240;8.798;2023-04-10T15:33:33;17.80;75.20
31765;DHT22;18338;53.240;8.798;2023-04-10T15:36:02;17.80;74.50
31765;DHT22;18338;53.240;8.798;2023-04-10T15:38:31;17.90;75.90
31765;DHT22;18338;53.240;8.798;2023-04-10T15:40:58;18.00;75.60
31765;DHT22;18338;53.240;8.798;2023-04-10T15:43:25;18.00;76.20
31765;DHT22;18338;53.240;8.798;2023-04-10T15:45:51;17.90;76.40
31765;DHT22;18338;53.240;8.798;2023-04-10T15:48:18;17.80;76.60
31765;DHT22;18338;53.240;8.798;2023-04-10T15:50:48;17.70;78.10
31765;DHT22;18338;53.240;8.798;2023-04-10T15:53:14;17.60;78.00
31765;DHT22;18338;53.240;8.798;2023-04-10T15:55:41;17.50;77.50
31765;DHT22;18338;53.240;8.798;2023-04-10T15:58:08;17.40;78.10
31765;DHT22;18338;53.240;8.798;2023-04-10T16:00:35;17.30;78.80
31765;DHT22;18338;53.240;8.798;2023-04-10T16:03:01;17.20;79.60
31765;DHT22;18338;53.240;8.798;2023-04-10T16:05:29;17.20;79.80
31765;DHT22;18338;53.240;8.798;2023-04-10T16:07:56;17.10;80.30
31765;DHT22;18338;53.240;8.798;2023-04-10T16:10:24;17.10;80.50
31765;DHT22;18338;53.240;8.798;2023-04-10T16:12:51;17.10;79.40
31765;DHT22;18338;53.240;8.798;2023-04-10T16:15:18;17.10;79.30